Time;durP1;ratioP1;P1;durP2;ratioP2;P2;SDS_P1;SDS_P2;PMS_P1;PMS_P2;Temp;Humidity;BMP_temperature;BMP_pressure;BME280_temperature;BME280_humidity;BME280_pressure;Samples;Min_cycle;Max_cycle;Signal;HPM_P1;HPM_P2
2022/07/09 00:00:57;;;;;;;3.97;3.43;;;16.20;45.30;;;;;;4876100;29;20478;-77
2022/07/09 00:03:24;;;;;;;5.07;3.20;;;16.10;45.20;;;;;;4877323;29;20469;-77
2022/07/09 00:05:51;;;;;;;3.70;3.03;;;16.10;45.20;;;;;;4875144;29;20469;-78
2022/07/09 00:08:18;;;;;;;5.03;3.30;;;16.20;45.30;;;;;;4881732;29;20472;-78
2022/07/09 00:10:45;;;;;;;8.07;3.10;;;16.10;45.20;;;;;;4869584;29;20455;-78
2022/07/09 00:13:12;;;;;;;3.60;3.03;;;16.10;45.20;;;;;;4866643;29;20485;-78
2022/07/09 00:15:39;;;;;;;3.90;3.47;;;16.00;46.00;;;;;;4871330;29;20436;-76
2022/07/09 00:18:07;;;;;;;5.00;3.50;;;16.00;46.60;;;;;;4864497;29;20437;-78
2022/07/09 00:20:34;;;;;;;3.80;3.50;;;16.00;45.70;;;;;;4864031;29;20824;-78
2022/07/09 00:23:01;;;;;;;5.60;3.53;;;15.90;46.10;;;;;;4863734;29;20440;-77
2022/07/09 00:25:28;;;;;;;7.40;3.60;;;15.80;46.70;;;;;;4863564;29;20453;-78
2022/07/09 00:27:54;;;;;;;4.83;3.27;;;15.80;46.90;;;;;;4871091;29;20479;-77
2022/07/09 00:30:21;;;;;;;4.03;3.10;;;15.80;47.30;;;;;;4871238;29;20489;-77
2022/07/09 00:32:48;;;;;;;6.23;4.03;;;15.80;48.30;;;;;;4867386;29;20458;-78
2022/07/09 00:35:19;;;;;;;4.35;3.20;;;15.70;47.70;;;;;;4872631;29;20429;-78
2022/07/09 00:37:46;;;;;;;5.33;3.20;;;15.80;47.60;;;;;;4873696;29;20209;-77
2022/07/09 00:40:13;;;;;;;3.80;3.00;;;15.70;48.10;;;;;;4868828;29;20482;-78
2022/07/09 00:42:40;;;;;;;4.10;3.30;;;15.70;48.10;;;;;;4864433;29;20462;-77
2022/07/09 00:45:08;;;;;;;3.60;3.30;;;15.70;48.30;;;;;;4865104;29;20465;-77
2022/07/09 00:47:35;;;;;;;5.40;4.90;;;15.60;48.60;;;;;;4863463;29;20613;-78
2022/07/09 00:50:02;;;;;;;3.70;3.35;;;15.60;48.80;;;;;;4866300;29;20488;-79
2022/07/09 00:52:32;;;;;;;4.20;2.93;;;15.60;49.00;;;;;;4864355;29;20213;-78
2022/07/09 00:55:01;;;;;;;5.00;2.97;;;15.50;49.00;;;;;;4864029;29;21002;-78
2022/07/09 00:57:29;;;;;;;3.50;3.20;;;15.50;49.10;;;;;;4864155;29;20454;-79
2022/07/09 00:59:59;;;;;;;6.40;3.10;;;15.50;49.40;;;;;;4865779;29;20459;-79
2022/07/09 01:02:26;;;;;;;4.45;3.38;;;15.40;49.40;;;;;;4863252;29;20537;-79
2022/07/09 01:04:53;;;;;;;3.97;3.10;;;15.40;49.40;;;;;;4865301;29;20623;-78
2022/07/09 01:07:21;;;;;;;4.50;2.73;;;15.40;49.50;;;;;;4875076;29;20470;-79
2022/07/09 01:09:49;;;;;;;5.97;3.37;;;15.40;49.40;;;;;;4864320;29;20449;-78
2022/07/09 01:12:16;;;;;;;4.23;3.17;;;15.30;49.60;;;;;;4863161;29;20576;-78
2022/07/09 01:14:43;;;;;;;3.90;3.03;;;15.30;49.70;;;;;;4864509;29;20558;-78
2022/07/09 01:17:10;;;;;;;5.77;3.40;;;15.30;49.70;;;;;;4865368;29;20481;-78
2022/07/09 01:19:36;;;;;;;4.27;2.93;;;15.30;49.60;;;;;;4868916;29;20870;-78
2022/07/09 01:22:05;;;;;;;4.10;3.23;;;15.30;50.20;;;;;;4874160;29;20462;-78
2022/07/09 01:24:32;;;;;;;3.60;3.30;;;15.40;50.20;;;;;;4874821;29;20840;-78
2022/07/09 01:26:59;;;;;;;4.70;3.40;;;15.40;50.10;;;;;;4871609;29;20536;-78
2022/07/09 01:29:26;;;;;;;3.50;3.20;;;15.30;50.00;;;;;;4873750;29;20477;-77
2022/07/09 01:31:53;;;;;;;8.30;3.10;;;15.20;50.50;;;;;;4876156;29;20432;-79
2022/07/09 01:34:20;;;;;;;6.73;3.37;;;15.20;51.10;;;;;;4878447;29;20541;-78
2022/07/09 01:36:47;;;;;;;4.43;3.43;;;15.20;51.30;;;;;;4871964;29;20489;-78
2022/07/09 01:39:15;;;;;;;7.60;3.37;;;15.10;51.30;;;;;;4875165;29;20462;-78
2022/07/09 01:41:42;;;;;;;5.50;3.20;;;15.10;51.70;;;;;;4867922;29;20468;-78
2022/07/09 01:44:09;;;;;;;4.67;3.23;;;15.10;51.90;;;;;;4864093;29;20454;-79
2022/07/09 01:46:36;;;;;;;9.15;4.15;;;15.00;52.00;;;;;;4867969;29;20473;-78
2022/07/09 01:49:04;;;;;;;3.97;3.57;;;15.00;52.80;;;;;;4867871;29;20797;-78
2022/07/09 01:51:32;;;;;;;4.90;3.43;;;14.90;53.10;;;;;;4866339;29;20981;-78
2022/07/09 01:53:58;;;;;;;3.10;2.90;;;14.90;53.80;;;;;;4864370;29;20496;-78
2022/07/09 01:56:27;;;;;;;4.33;3.67;;;14.90;53.80;;;;;;4866656;29;20466;-78
2022/07/09 01:58:53;;;;;;;3.80;3.03;;;14.80;53.70;;;;;;4864206;29;20454;-78
2022/07/09 02:01:21;;;;;;;3.90;3.30;;;14.80;53.70;;;;;;4864306;29;21013;-78
2022/07/09 02:03:48;;;;;;;4.43;3.30;;;14.80;53.70;;;;;;4864952;29;20551;-79
2022/07/09 02:06:15;;;;;;;8.55;3.50;;;14.70;53.60;;;;;;4867121;29;20557;-78
2022/07/09 02:08:43;;;;;;;11.55;4.53;;;14.70;54.00;;;;;;4863857;29;20681;-78
2022/07/09 02:11:10;;;;;;;5.63;3.58;;;14.70;55.70;;;;;;4862531;29;20240;-78
2022/07/09 02:13:38;;;;;;;4.20;3.80;;;14.60;55.40;;;;;;4863463;29;20281;-78
2022/07/09 02:16:06;;;;;;;4.78;4.07;;;14.60;56.30;;;;;;4863510;29;20311;-78
2022/07/09 02:18:33;;;;;;;4.50;3.50;;;14.60;55.80;;;;;;4863210;29;20206;-78
2022/07/09 02:20:59;;;;;;;9.23;3.88;;;14.60;55.40;;;;;;4862384;29;20482;-78
2022/07/09 02:23:26;;;;;;;5.85;3.80;;;14.60;55.50;;;;;;4862398;29;20221;-78
2022/07/09 02:25:58;;;;;;;4.70;3.60;;;14.50;55.50;;;;;;4865404;29;20215;-80
2022/07/09 02:28:34;;;;;;;6.40;4.22;;;14.40;56.60;;;;;;4867942;29;20272;-78
2022/07/09 02:31:03;;;;;;;5.88;3.83;;;14.40;56.90;;;;;;4863569;29;20232;-76
2022/07/09 02:33:31;;;;;;;5.10;3.20;;;14.40;57.10;;;;;;4865805;29;20209;-78
2022/07/09 02:35:57;;;;;;;3.78;3.47;;;14.40;57.50;;;;;;4864952;29;20213;-77
2022/07/09 02:38:24;;;;;;;4.38;3.42;;;14.40;57.30;;;;;;4864152;29;20209;-78
2022/07/09 02:40:51;;;;;;;4.73;3.43;;;14.40;58.30;;;;;;4863975;29;20237;-79
2022/07/09 02:43:18;;;;;;;5.43;3.40;;;14.40;57.70;;;;;;4865342;29;20465;-78
2022/07/09 02:45:45;;;;;;;4.50;3.58;;;14.40;57.60;;;;;;4876832;29;20289;-79
2022/07/09 02:48:13;;;;;;;3.78;3.30;;;14.40;57.50;;;;;;4878325;29;20284;-78
2022/07/09 02:50:40;;;;;;;4.32;3.90;;;14.40;57.60;;;;;;4873969;29;20243;-78
2022/07/09 02:53:07;;;;;;;3.83;3.50;;;14.40;57.70;;;;;;4870845;29;20224;-78
2022/07/09 02:55:34;;;;;;;6.38;4.43;;;14.40;58.00;;;;;;4870706;29;20256;-78
2022/07/09 02:58:01;;;;;;;4.28;3.35;;;14.40;57.90;;;;;;4870750;29;20257;-77
2022/07/09 03:00:28;;;;;;;4.72;3.70;;;14.40;57.90;;;;;;4869098;29;20305;-78
2022/07/09 03:02:55;;;;;;;5.15;3.63;;;14.50;58.20;;;;;;4865981;29;20252;-78
2022/07/09 03:05:23;;;;;;;5.13;3.45;;;14.50;58.20;;;;;;4865098;29;20213;-78
2022/07/09 03:07:50;;;;;;;6.47;4.10;;;14.40;58.40;;;;;;4863087;29;20710;-77
2022/07/09 03:10:17;;;;;;;4.53;4.00;;;14.50;59.20;;;;;;4863659;29;20260;-78
2022/07/09 03:12:44;;;;;;;4.50;3.47;;;14.40;60.00;;;;;;4866013;29;20213;-78
2022/07/09 03:15:13;;;;;;;4.32;3.92;;;14.40;59.90;;;;;;4876270;29;20224;-78
2022/07/09 03:17:40;;;;;;;7.25;3.65;;;14.40;59.70;;;;;;4877611;29;20237;-78
2022/07/09 03:20:07;;;;;;;4.00;3.50;;;14.40;59.40;;;;;;4875620;29;20252;-78
2022/07/09 03:22:36;;;;;;;5.00;4.05;;;14.30;59.30;;;;;;4877652;29;20213;-78
2022/07/09 03:25:03;;;;;;;4.50;3.70;;;14.20;59.70;;;;;;4883595;29;20217;-78
2022/07/09 03:27:30;;;;;;;4.45;4.00;;;14.30;60.10;;;;;;4874647;29;20324;-78
2022/07/09 03:29:57;;;;;;;4.25;3.85;;;14.20;60.00;;;;;;4902427;23;20215;-79
2022/07/09 03:32:24;;;;;;;4.70;4.18;;;14.10;60.20;;;;;;4864837;29;20209;-79
2022/07/09 03:34:52;;;;;;;5.50;4.10;;;14.00;60.60;;;;;;4869024;29;20213;-79
2022/07/09 03:37:19;;;;;;;4.25;3.90;;;14.10;60.90;;;;;;4879772;29;20298;-79
2022/07/09 03:39:47;;;;;;;4.07;3.67;;;14.00;61.40;;;;;;4868869;29;20245;-79
2022/07/09 03:42:14;;;;;;;6.03;3.83;;;14.00;62.00;;;;;;4848494;29;20274;-77
2022/07/09 03:44:41;;;;;;;7.85;3.90;;;13.90;62.20;;;;;;4847019;29;20472;-78
2022/07/09 03:47:08;;;;;;;4.03;3.70;;;14.00;62.30;;;;;;4845870;29;20224;-78
2022/07/09 03:49:38;;;;;;;4.90;3.83;;;14.00;62.30;;;;;;4846751;29;20229;-77
2022/07/09 03:52:06;;;;;;;4.10;3.65;;;14.00;62.00;;;;;;4845141;29;20720;-80
2022/07/09 03:54:33;;;;;;;5.07;4.05;;;14.10;61.60;;;;;;4848895;29;20216;-80
2022/07/09 03:57:01;;;;;;;6.13;3.55;;;14.20;61.40;;;;;;4852557;29;20249;-78
2022/07/09 03:59:28;;;;;;;5.20;4.70;;;14.20;60.80;;;;;;4851684;29;20212;-79
2022/07/09 04:01:55;;;;;;;5.10;3.65;;;14.30;60.40;;;;;;4854060;29;20257;-79
2022/07/09 04:04:21;;;;;;;6.15;3.90;;;14.40;59.90;;;;;;4861572;29;20289;-80
2022/07/09 04:06:48;;;;;;;5.80;3.60;;;14.50;59.50;;;;;;4861862;29;20226;-80
2022/07/09 04:09:15;;;;;;;5.82;3.85;;;14.60;58.60;;;;;;4859867;29;20301;-80
2022/07/09 04:11:42;;;;;;;6.00;4.38;;;14.60;58.10;;;;;;4860987;29;20265;-79
2022/07/09 04:14:10;;;;;;;5.05;3.80;;;14.60;57.60;;;;;;4862000;29;20217;-79
2022/07/09 04:16:37;;;;;;;4.60;4.20;;;14.70;57.40;;;;;;4861334;29;20597;-79
2022/07/09 04:19:04;;;;;;;4.93;3.58;;;14.70;57.30;;;;;;4861191;29;20282;-79
2022/07/09 04:21:31;;;;;;;5.93;4.32;;;14.80;57.00;;;;;;4859357;29;20249;-79
2022/07/09 04:23:58;;;;;;;5.10;3.90;;;14.90;56.40;;;;;;4859396;29;20273;-79
2022/07/09 04:26:24;;;;;;;4.47;4.07;;;15.00;55.90;;;;;;4854276;29;20459;-79
2022/07/09 04:28:51;;;;;;;3.97;3.63;;;15.10;55.10;;;;;;4850850;29;20229;-79
2022/07/09 04:31:21;;;;;;;5.45;3.70;;;15.20;54.10;;;;;;4850198;29;20241;-79
2022/07/09 04:33:48;;;;;;;5.38;3.33;;;15.30;54.20;;;;;;4857338;29;20209;-79
2022/07/09 04:36:14;;;;;;;4.47;3.58;;;15.40;54.30;;;;;;4862498;29;20210;-79
2022/07/09 04:38:58;;;;;;;4.03;3.20;;;15.50;54.40;;;;;;4865349;29;20198;-78
2022/07/09 04:41:25;;;;;;;6.60;3.93;;;15.60;53.70;;;;;;4867066;29;20466;-80
2022/07/09 04:43:52;;;;;;;4.70;3.47;;;15.70;52.90;;;;;;4865905;29;20514;-80
2022/07/09 04:46:21;;;;;;;6.27;3.70;;;15.80;52.30;;;;;;4865704;29;20435;-80
2022/07/09 04:48:48;;;;;;;4.73;4.23;;;16.00;51.90;;;;;;4866307;29;20494;-81
2022/07/09 04:51:16;;;;;;;6.20;4.37;;;16.20;51.90;;;;;;4866543;29;20479;-81
2022/07/09 04:53:43;;;;;;;3.43;3.13;;;16.30;50.50;;;;;;4866768;29;20463;-80
2022/07/09 04:56:10;;;;;;;7.37;3.90;;;16.50;49.90;;;;;;4866579;29;20451;-81
2022/07/09 04:58:37;;;;;;;4.00;3.60;;;16.70;48.70;;;;;;4858734;29;20475;-80
2022/07/09 05:01:04;;;;;;;6.47;4.10;;;16.90;47.70;;;;;;4852806;29;20483;-79
2022/07/09 05:03:32;;;;;;;6.93;3.73;;;17.20;47.40;;;;;;4862950;29;20467;-81
2022/07/09 05:05:59;;;;;;;4.00;2.97;;;17.80;46.80;;;;;;4865345;29;20459;-81
2022/07/09 05:08:26;;;;;;;5.57;2.97;;;18.60;43.80;;;;;;4857700;29;20475;-79
2022/07/09 05:10:53;;;;;;;5.93;4.00;;;19.30;39.80;;;;;;4853142;29;20442;-80
2022/07/09 05:13:20;;;;;;;7.10;3.47;;;19.80;38.70;;;;;;4850168;29;20501;-80
2022/07/09 05:15:47;;;;;;;4.67;3.20;;;20.40;37.90;;;;;;4850326;29;20542;-80
2022/07/09 05:18:14;;;;;;;3.43;2.80;;;21.00;36.60;;;;;;4850057;29;20457;-79
2022/07/09 05:20:42;;;;;;;6.33;3.30;;;21.80;34.80;;;;;;4849584;29;20483;-80
2022/07/09 05:23:09;;;;;;;4.30;3.10;;;22.40;32.30;;;;;;4849930;29;20502;-81
2022/07/09 05:25:36;;;;;;;4.73;3.53;;;23.00;31.30;;;;;;4847645;29;20448;-80
2022/07/09 05:28:03;;;;;;;5.60;3.67;;;23.30;30.50;;;;;;4854175;29;20443;-79
2022/07/09 05:30:30;;;;;;;3.70;3.20;;;22.30;31.60;;;;;;4848165;29;20507;-80
2022/07/09 05:32:57;;;;;;;5.30;3.03;;;22.60;30.90;;;;;;4848820;29;20477;-80
2022/07/09 05:35:23;;;;;;;3.70;2.60;;;23.60;30.10;;;;;;4847522;29;20475;-80
2022/07/09 05:37:52;;;;;;;4.30;3.03;;;24.40;28.70;;;;;;4847732;29;20829;-80
2022/07/09 05:40:19;;;;;;;3.47;2.63;;;25.10;27.80;;;;;;4849720;29;20469;-80
2022/07/09 05:42:46;;;;;;;3.20;2.90;;;25.30;26.90;;;;;;4850684;29;20468;-80
2022/07/09 05:45:29;;;;;;;3.27;2.93;;;24.90;27.40;;;;;;4860708;29;20475;-80
2022/07/09 05:47:55;;;;;;;5.47;3.00;;;24.70;27.60;;;;;;4855204;29;20532;-78
2022/07/09 05:50:22;;;;;;;4.33;2.70;;;24.50;27.80;;;;;;4850129;29;20836;-79
2022/07/09 05:52:50;;;;;;;5.50;3.27;;;24.30;28.20;;;;;;4845802;29;20451;-78
2022/07/09 05:55:17;;;;;;;5.77;3.00;;;24.00;28.80;;;;;;4846748;29;20794;-79
2022/07/09 05:57:46;;;;;;;9.10;3.10;;;24.00;28.70;;;;;;4845578;29;20437;-78
2022/07/09 06:00:13;;;;;;;5.20;3.20;;;24.20;28.40;;;;;;4851533;29;20510;-79
2022/07/09 06:02:40;;;;;;;4.07;2.70;;;24.60;28.10;;;;;;4849680;29;20433;-79
2022/07/09 06:05:07;;;;;;;8.30;3.10;;;24.90;27.60;;;;;;4849862;29;20473;-79
2022/07/09 06:07:34;;;;;;;5.40;3.33;;;25.00;27.50;;;;;;4855956;29;20425;-80
2022/07/09 06:10:03;;;;;;;5.03;3.17;;;25.00;27.50;;;;;;4854388;29;20506;-80
2022/07/09 06:12:30;;;;;;;4.10;3.17;;;25.20;27.20;;;;;;4862330;29;20499;-80
2022/07/09 06:14:57;;;;;;;3.30;2.57;;;24.70;28.00;;;;;;4854224;29;20535;-80
2022/07/09 06:17:24;;;;;;;6.67;3.10;;;24.50;28.00;;;;;;4850251;29;20455;-80
2022/07/09 06:19:51;;;;;;;4.57;3.20;;;24.30;28.50;;;;;;4850733;29;20470;-80
2022/07/09 06:22:18;;;;;;;6.20;3.60;;;24.10;28.70;;;;;;4855198;29;20472;-81
2022/07/09 06:24:44;;;;;;;6.20;3.73;;;24.40;28.60;;;;;;4861531;29;20434;-80
2022/07/09 06:27:13;;;;;;;3.20;2.90;;;24.70;28.10;;;;;;4859612;29;20502;-80
2022/07/09 06:29:39;;;;;;;3.63;3.20;;;24.60;28.10;;;;;;4859939;29;20530;-80
2022/07/09 06:32:07;;;;;;;7.07;3.63;;;23.70;29.60;;;;;;4859247;29;20512;-80
2022/07/09 06:34:34;;;;;;;6.80;3.63;;;23.70;29.60;;;;;;4859388;29;20520;-80
2022/07/09 06:37:01;;;;;;;4.43;3.73;;;24.00;29.70;;;;;;4860780;29;20476;-80
2022/07/09 06:39:47;;;;;;;3.50;3.00;;;24.90;28.70;;;;;;4860045;29;20456;-81
2022/07/09 06:42:16;;;;;;;8.30;3.70;;;25.70;26.90;;;;;;4836026;29;20507;-79
2022/07/09 06:44:43;;;;;;;5.70;3.20;;;25.00;28.40;;;;;;4831699;29;20464;-80
2022/07/09 06:47:10;;;;;;;6.03;3.40;;;25.50;27.90;;;;;;4851434;29;20475;-79
2022/07/09 06:49:37;;;;;;;5.03;3.20;;;26.00;26.40;;;;;;4852260;29;20479;-79
2022/07/09 06:52:05;;;;;;;4.93;3.50;;;25.50;27.10;;;;;;4851489;29;20466;-78
2022/07/09 06:54:31;;;;;;;3.70;3.17;;;24.60;28.50;;;;;;4847397;29;20457;-78
2022/07/09 06:56:58;;;;;;;5.53;3.27;;;24.60;28.60;;;;;;4847801;29;20512;-79
2022/07/09 06:59:27;;;;;;;8.50;3.30;;;24.50;29.40;;;;;;4848274;29;20804;-80
2022/07/09 07:01:53;;;;;;;3.73;2.90;;;24.90;28.80;;;;;;4846824;29;20521;-79
2022/07/09 07:04:21;;;;;;;4.23;3.60;;;25.40;28.10;;;;;;4846484;29;20824;-78
2022/07/09 07:06:48;;;;;;;5.60;3.30;;;25.10;28.40;;;;;;4848713;29;20800;-79
2022/07/09 07:09:17;;;;;;;6.17;3.53;;;24.60;29.00;;;;;;4861008;29;20849;-79
2022/07/09 07:11:45;;;;;;;6.23;3.57;;;24.10;29.80;;;;;;4852612;29;20581;-81
2022/07/09 07:14:12;;;;;;;5.60;3.73;;;23.80;30.00;;;;;;4853781;29;20488;-79
2022/07/09 07:16:40;;;;;;;6.97;3.43;;;23.40;30.60;;;;;;4853977;29;20469;-78
2022/07/09 07:19:07;;;;;;;4.80;3.60;;;23.30;31.50;;;;;;4863488;29;20519;-79
2022/07/09 07:21:34;;;;;;;4.07;2.83;;;23.30;31.50;;;;;;4857325;29;20453;-79
2022/07/09 07:24:00;;;;;;;3.30;3.00;;;23.20;31.40;;;;;;4859741;29;20469;-79
2022/07/09 07:26:27;;;;;;;7.63;3.03;;;23.10;31.40;;;;;;4859877;29;20452;-79
2022/07/09 07:28:55;;;;;;;10.03;3.70;;;22.70;31.50;;;;;;4854769;29;20479;-79
2022/07/09 07:31:22;;;;;;;3.30;3.00;;;22.70;31.20;;;;;;4852127;29;20469;-80
2022/07/09 07:33:50;;;;;;;4.00;3.10;;;22.60;31.70;;;;;;4853147;29;20528;-80
2022/07/09 07:36:18;;;;;;;6.03;3.53;;;22.50;32.50;;;;;;4852850;29;20458;-79
2022/07/09 07:38:46;;;;;;;5.77;4.00;;;22.60;32.00;;;;;;4858807;29;20452;-79
2022/07/09 07:41:13;;;;;;;6.07;3.40;;;22.60;31.40;;;;;;4863753;29;20483;-79
2022/07/09 07:43:40;;;;;;;10.47;4.07;;;22.60;31.60;;;;;;4864755;29;20486;-80
2022/07/09 07:46:06;;;;;;;4.73;3.50;;;22.60;32.00;;;;;;4863455;29;20434;-79
2022/07/09 07:48:35;;;;;;;4.90;2.90;;;22.50;32.10;;;;;;4864917;29;20449;-78
2022/07/09 07:51:04;;;;;;;5.10;3.00;;;22.50;32.60;;;;;;4863965;29;20578;-79
2022/07/09 07:53:31;;;;;;;4.27;2.77;;;22.40;33.40;;;;;;4863299;29;20433;-79
2022/07/09 07:55:58;;;;;;;6.20;2.90;;;22.30;33.60;;;;;;4862750;29;20471;-79
2022/07/09 07:58:25;;;;;;;4.73;2.93;;;22.40;33.20;;;;;;4857920;29;20482;-79
2022/07/09 08:00:53;;;;;;;5.30;2.83;;;22.50;34.00;;;;;;4858629;29;20476;-78
2022/07/09 08:03:20;;;;;;;3.70;2.77;;;22.50;32.50;;;;;;4853469;29;20466;-80
2022/07/09 08:05:49;;;;;;;4.20;2.57;;;22.40;32.90;;;;;;4855455;29;20470;-79
2022/07/09 08:08:18;;;;;;;5.23;3.30;;;22.60;32.40;;;;;;4857545;29;21028;-81
2022/07/09 08:10:46;;;;;;;2.40;2.20;;;22.40;32.70;;;;;;4857185;29;20528;-81
2022/07/09 08:13:13;;;;;;;2.20;2.00;;;22.70;32.30;;;;;;4857751;29;20470;-81
2022/07/09 08:15:40;;;;;;;3.40;3.10;;;22.70;32.80;;;;;;4861571;29;20494;-82
2022/07/09 08:18:12;;;;;;;7.30;2.70;;;22.80;32.40;;;;;;4859077;29;20471;-83
2022/07/09 08:20:39;;;;;;;5.60;2.40;;;23.00;31.70;;;;;;4857793;29;20517;-82
2022/07/09 08:23:06;;;;;;;4.33;2.40;;;22.70;31.80;;;;;;4859438;29;20554;-83
2022/07/09 08:25:34;;;;;;;4.33;2.20;;;22.80;32.00;;;;;;4855754;29;20552;-81
2022/07/09 08:28:02;;;;;;;3.80;2.10;;;23.00;31.30;;;;;;4855499;29;20410;-80
2022/07/09 08:30:29;;;;;;;2.37;2.10;;;23.20;31.40;;;;;;4850506;29;20548;-79
2022/07/09 08:32:56;;;;;;;2.87;1.90;;;23.30;31.50;;;;;;4851769;29;20483;-80
2022/07/09 08:35:25;;;;;;;2.53;1.80;;;23.20;31.40;;;;;;4870078;29;20833;-80
2022/07/09 08:38:42;;;;;;;1.87;1.77;;;23.30;31.50;;;;;;4855856;29;20469;-79
2022/07/09 08:41:10;;;;;;;2.00;1.87;;;23.40;31.60;;;;;;4852938;29;20853;-80
2022/07/09 08:43:40;;;;;;;4.03;2.20;;;23.70;30.90;;;;;;4855755;29;20442;-80
2022/07/09 08:46:07;;;;;;;4.73;2.20;;;24.00;29.70;;;;;;4855658;29;21054;-79
2022/07/09 08:48:36;;;;;;;3.00;2.20;;;24.10;29.70;;;;;;4863355;29;20611;-79
2022/07/09 08:51:04;;;;;;;8.07;1.57;;;24.30;28.80;;;;;;4860069;29;20523;-80
2022/07/09 08:53:31;;;;;;;2.90;1.80;;;24.40;28.50;;;;;;4864875;29;20499;-80
2022/07/09 08:55:59;;;;;;;3.83;2.17;;;24.10;28.90;;;;;;4860748;29;20468;-79
2022/07/09 08:58:27;;;;;;;4.70;2.37;;;24.30;29.10;;;;;;4860382;29;20459;-80
2022/07/09 09:00:57;;;;;;;5.40;2.07;;;24.00;29.60;;;;;;4860198;29;20502;-81
2022/07/09 09:03:24;;;;;;;2.90;2.17;;;23.70;30.30;;;;;;4856492;29;21187;-81
2022/07/09 09:06:02;;;;;;;2.20;2.10;;;23.90;30.60;;;;;;4854854;29;20465;-81
2022/07/09 09:08:40;;;;;;;4.10;2.17;;;24.30;29.40;;;;;;4858843;29;20462;-81
2022/07/09 09:11:09;;;;;;;2.30;1.87;;;24.60;28.50;;;;;;4855610;29;20616;-81
2022/07/09 09:13:54;;;;;;;3.13;2.10;;;24.50;28.90;;;;;;4857440;29;20503;-81
2022/07/09 09:16:22;;;;;;;3.17;2.07;;;24.50;28.90;;;;;;4859789;29;20433;-82
2022/07/09 09:18:50;;;;;;;4.97;1.97;;;24.40;28.90;;;;;;4864860;29;20529;-81
2022/07/09 09:21:19;;;;;;;1.70;1.60;;;24.10;29.40;;;;;;4848583;29;20484;-82
2022/07/09 09:23:48;;;;;;;2.83;1.67;;;23.70;29.70;;;;;;4866989;29;20538;-81
2022/07/09 09:26:17;;;;;;;2.10;1.90;;;24.00;29.30;;;;;;4868369;29;20436;-81
2022/07/09 09:28:49;;;;;;;4.60;2.13;;;24.30;28.80;;;;;;4854455;29;20493;-81
2022/07/09 09:31:25;;;;;;;2.70;2.30;;;24.50;28.40;;;;;;4867674;24;20532;-79
2022/07/09 09:33:53;;;;;;;2.40;1.60;;;24.50;28.00;;;;;;4860455;29;20545;-79
2022/07/09 09:36:28;;;;;;;2.03;1.60;;;24.80;27.80;;;;;;4862207;29;20947;-79
2022/07/09 09:38:55;;;;;;;4.03;1.70;;;25.20;27.40;;;;;;4862055;29;20564;-79
2022/07/09 09:41:23;;;;;;;5.60;1.80;;;25.60;26.60;;;;;;4864798;29;20488;-79
2022/07/09 09:43:56;;;;;;;7.63;1.90;;;25.60;26.30;;;;;;4864329;29;20439;-80
2022/07/09 09:46:25;;;;;;;2.90;1.40;;;25.50;25.80;;;;;;4863915;29;20455;-78
2022/07/09 09:48:51;;;;;;;2.53;1.33;;;25.40;25.70;;;;;;4864435;29;20946;-79
2022/07/09 09:51:22;;;;;;;1.67;1.57;;;25.30;25.90;;;;;;4865804;29;20480;-78
2022/07/09 09:53:49;;;;;;;4.30;1.53;;;25.20;25.90;;;;;;4865502;29;20462;-79
2022/07/09 09:56:17;;;;;;;2.60;1.50;;;25.20;25.80;;;;;;4869277;29;21050;-78
2022/07/09 09:58:44;;;;;;;1.30;1.20;;;25.10;25.40;;;;;;4873284;29;20443;-78
2022/07/09 10:01:12;;;;;;;1.20;1.10;;;25.10;25.40;;;;;;4880047;29;20575;-78
2022/07/09 10:03:41;;;;;;;3.10;1.40;;;25.30;25.00;;;;;;4874097;29;20462;-79
2022/07/09 10:06:08;;;;;;;1.87;1.67;;;25.50;24.20;;;;;;4881709;29;20544;-78
2022/07/09 10:08:36;;;;;;;1.90;1.50;;;25.10;25.60;;;;;;4878457;29;20492;-78
2022/07/09 10:11:04;;;;;;;3.13;1.40;;;25.50;24.60;;;;;;4877119;29;20495;-79
2022/07/09 10:13:31;;;;;;;3.43;1.37;;;25.70;24.70;;;;;;4880541;29;20429;-79
2022/07/09 10:15:59;;;;;;;1.20;1.10;;;25.90;24.80;;;;;;4882294;29;20533;-79
2022/07/09 10:18:26;;;;;;;1.53;0.93;;;25.70;24.60;;;;;;4882752;29;20468;-78
2022/07/09 10:20:58;;;;;;;1.30;1.20;;;25.10;24.30;;;;;;4884345;29;20439;-78
2022/07/09 10:23:26;;;;;;;2.50;1.57;;;25.00;24.70;;;;;;4887487;29;20465;-78
2022/07/09 10:25:55;;;;;;;2.40;1.57;;;25.10;25.30;;;;;;4887073;29;20529;-78
2022/07/09 10:28:24;;;;;;;2.30;1.40;;;25.10;26.20;;;;;;4886029;29;20447;-78
2022/07/09 10:30:53;;;;;;;2.23;1.97;;;25.30;27.10;;;;;;4885446;29;20505;-78
2022/07/09 10:33:24;;;;;;;3.13;2.40;;;25.70;26.50;;;;;;4885761;29;20458;-77
2022/07/09 10:35:54;;;;;;;3.57;2.03;;;26.00;25.80;;;;;;4886504;29;20513;-77
2022/07/09 10:38:24;;;;;;;5.27;2.87;;;26.30;25.30;;;;;;4887322;29;20447;-79
2022/07/09 10:40:58;;;;;;;3.00;1.80;;;25.80;25.70;;;;;;4897923;29;20468;-77
2022/07/09 10:43:39;;;;;;;3.67;2.10;;;25.50;26.20;;;;;;4868815;29;20448;-76
2022/07/09 10:46:11;;;;;;;3.20;1.80;;;25.50;26.30;;;;;;4865673;29;20534;-76
2022/07/09 10:48:38;;;;;;;2.30;1.70;;;25.70;25.20;;;;;;4864824;29;20974;-76
2022/07/09 10:51:05;;;;;;;6.77;1.60;;;25.70;24.70;;;;;;4864014;29;20564;-76
2022/07/09 10:53:34;;;;;;;1.87;1.27;;;25.70;24.70;;;;;;4865451;29;20466;-78
2022/07/09 10:56:00;;;;;;;1.30;1.20;;;25.60;23.30;;;;;;4867336;29;20472;-77
2022/07/09 10:58:29;;;;;;;1.53;1.43;;;25.60;23.30;;;;;;4874187;29;20469;-77
2022/07/09 11:00:57;;;;;;;2.10;1.90;;;25.40;24.50;;;;;;4876487;29;20459;-78
2022/07/09 11:03:28;;;;;;;2.17;1.90;;;25.90;24.80;;;;;;4875286;29;20436;-78
2022/07/09 11:05:55;;;;;;;1.30;1.20;;;26.20;24.10;;;;;;4870235;29;20509;-77
2022/07/09 11:08:22;;;;;;;3.37;1.50;;;26.30;23.60;;;;;;4868073;29;20421;-77
2022/07/09 11:10:51;;;;;;;1.70;1.60;;;26.50;23.70;;;;;;4865757;29;20469;-77
2022/07/09 11:13:17;;;;;;;3.30;1.63;;;26.60;23.70;;;;;;4865077;29;20542;-77
2022/07/09 11:15:44;;;;;;;1.50;1.20;;;26.50;23.70;;;;;;4865227;29;20469;-78
2022/07/09 11:18:14;;;;;;;1.30;1.20;;;26.90;23.30;;;;;;4864410;29;20472;-77
2022/07/09 11:20:43;;;;;;;1.37;1.27;;;27.30;22.70;;;;;;4864302;29;20505;-77
2022/07/09 11:23:11;;;;;;;1.47;1.37;;;27.80;22.20;;;;;;4870579;29;20544;-76
2022/07/09 11:25:38;;;;;;;2.70;1.67;;;27.70;22.30;;;;;;4864343;29;20461;-77
2022/07/09 11:28:06;;;;;;;2.70;1.40;;;27.60;22.40;;;;;;4864299;29;20974;-75
2022/07/09 11:30:33;;;;;;;1.60;1.50;;;26.50;24.40;;;;;;4863452;29;20479;-77
2022/07/09 11:33:01;;;;;;;2.07;1.87;;;26.50;24.60;;;;;;4868454;29;20476;-77
2022/07/09 11:35:29;;;;;;;5.03;2.07;;;26.60;24.10;;;;;;4865380;29;20442;-78
2022/07/09 11:37:57;;;;;;;2.20;1.80;;;26.50;25.10;;;;;;4872305;29;20461;-77
2022/07/09 11:40:24;;;;;;;2.57;1.60;;;26.50;25.10;;;;;;4871000;29;20560;-77
2022/07/09 11:42:51;;;;;;;1.70;1.60;;;26.50;25.10;;;;;;4869377;29;20459;-79
2022/07/09 11:45:24;;;;;;;2.17;1.50;;;26.60;25.10;;;;;;4872318;29;20462;-78
2022/07/09 11:47:51;;;;;;;2.50;1.50;;;26.70;25.20;;;;;;4865878;29;20947;-78
2022/07/09 11:50:22;;;;;;;2.70;1.57;;;26.80;25.30;;;;;;4863855;29;20571;-77
2022/07/09 11:52:51;;;;;;;2.63;1.90;;;26.80;25.30;;;;;;4864704;29;20535;-77
2022/07/09 11:55:19;;;;;;;6.13;1.80;;;26.60;25.10;;;;;;4864847;29;20589;-76
2022/07/09 11:57:54;;;;;;;2.90;1.50;;;26.50;25.10;;;;;;4877380;29;20438;-78
2022/07/09 12:00:27;;;;;;;2.90;1.50;;;26.20;25.00;;;;;;4881745;29;20458;-78
2022/07/09 12:02:54;;;;;;;3.03;1.87;;;25.80;26.40;;;;;;4869232;29;20422;-77
2022/07/09 12:05:31;;;;;;;2.00;1.80;;;26.00;25.90;;;;;;4865630;29;20554;-78
2022/07/09 12:07:58;;;;;;;5.20;1.80;;;26.30;25.30;;;;;;4867101;29;20472;-78
2022/07/09 12:10:30;;;;;;;2.40;2.20;;;26.60;25.10;;;;;;4864893;29;20475;-78
2022/07/09 12:12:58;;;;;;;2.37;2.17;;;26.90;25.30;;;;;;4864883;29;20467;-78
2022/07/09 12:15:26;;;;;;;2.00;1.90;;;27.10;24.70;;;;;;4865162;29;20462;-77
2022/07/09 12:17:55;;;;;;;2.60;1.70;;;27.30;24.20;;;;;;4868015;29;20464;-77
2022/07/09 12:20:22;;;;;;;7.50;1.73;;;27.30;23.20;;;;;;4869094;29;21010;-79
2022/07/09 12:22:49;;;;;;;3.20;1.80;;;27.50;22.70;;;;;;4866338;29;20467;-77
2022/07/09 12:25:16;;;;;;;2.67;1.60;;;27.70;23.40;;;;;;4858210;29;20492;-78
2022/07/09 12:27:43;;;;;;;1.70;1.60;;;28.10;21.90;;;;;;4871099;29;20464;-77
2022/07/09 12:30:10;;;;;;;2.00;1.80;;;28.10;21.60;;;;;;4876169;29;20457;-80
2022/07/09 12:32:39;;;;;;;1.90;1.57;;;28.20;21.80;;;;;;4863468;29;20470;-79
2022/07/09 12:35:07;;;;;;;3.13;1.73;;;28.40;21.60;;;;;;4863748;29;20473;-78
2022/07/09 12:37:34;;;;;;;1.67;1.40;;;28.40;21.30;;;;;;4867105;29;20564;-78
2022/07/09 12:40:01;;;;;;;2.33;1.80;;;28.30;21.10;;;;;;4867510;29;20889;-78
2022/07/09 12:42:28;;;;;;;1.90;1.80;;;28.40;21.90;;;;;;4866029;29;20482;-78
2022/07/09 12:44:55;;;;;;;1.90;1.70;;;28.50;21.30;;;;;;4865795;29;20445;-78
2022/07/09 12:47:22;;;;;;;7.47;2.27;;;27.70;22.90;;;;;;4868818;29;20468;-78
2022/07/09 12:49:50;;;;;;;2.10;2.00;;;28.00;22.50;;;;;;4868893;29;20572;-78